sensor_id;sensor_type;location;lat;lon;timestamp;temperature;humidity
3713;DHT22;1872;51.406;6.856;2024-01-27T00:01:33;3.40;99.90
3713;DHT22;1872;51.406;6.856;2024-01-27T00:03:59;3.30;99.90
3713;DHT22;1872;51.406;6.856;2024-01-27T00:06:25;3.30;99.90
3713;DHT22;1872;51.406;6.856;2024-01-27T00:08:52;3.20;99.90
3713;DHT22;1872;51.406;6.856;2024-01-27T00:11:18;3.20;99.90
3713;DHT22;1872;51.406;6.856;2024-01-27T00:13:44;3.20;99.90
3713;DHT22;1872;51.406;6.856;2024-01-27T00:16:10;3.20;99.90
3713;DHT22;1872;51.406;6.856;2024-01-27T00:18:37;3.10;99.90
3713;DHT22;1872;51.406;6.856;2024-01-27T00:21:03;3.10;99.90
3713;DHT22;1872;51.406;6.856;2024-01-27T00:23:29;3.10;99.90
3713;DHT22;1872;51.406;6.856;2024-01-27T00:25:55;3.00;99.90
3713;DHT22;1872;51.406;6.856;2024-01-27T00:28:21;3.00;99.90
3713;DHT22;1872;51.406;6.856;2024-01-27T00:30:46;3.00;99.90
3713;DHT22;1872;51.406;6.856;2024-01-27T00:33:12;3.00;99.90
3713;DHT22;1872;51.406;6.856;2024-01-27T00:35:38;2.90;99.90
3713;DHT22;1872;51.406;6.856;2024-01-27T00:38:03;2.90;99.90
3713;DHT22;1872;51.406;6.856;2024-01-27T00:40:29;2.90;99.90
3713;DHT22;1872;51.406;6.856;2024-01-27T00:42:55;2.90;99.90
3713;DHT22;1872;51.406;6.856;2024-01-27T00:45:21;2.90;99.90
3713;DHT22;1872;51.406;6.856;2024-01-27T00:47:50;2.80;99.90
3713;DHT22;1872;51.406;6.856;2024-01-27T00:50:16;2.80;99.90
3713;DHT22;1872;51.406;6.856;2024-01-27T00:52:43;2.70;99.90
3713;DHT22;1872;51.406;6.856;2024-01-27T00:55:08;2.80;99.90
3713;DHT22;1872;51.406;6.856;2024-01-27T00:57:37;2.70;99.90
3713;DHT22;1872;51.406;6.856;2024-01-27T01:00:07;2.70;99.90
3713;DHT22;1872;51.406;6.856;2024-01-27T01:02:34;2.70;99.90
3713;DHT22;1872;51.406;6.856;2024-01-27T01:05:01;2.70;99.90
3713;DHT22;1872;51.406;6.856;2024-01-27T01:07:27;2.70;99.90
3713;DHT22;1872;51.406;6.856;2024-01-27T01:09:53;2.70;99.90
3713;DHT22;1872;51.406;6.856;2024-01-27T01:12:18;2.60;99.90
3713;DHT22;1872;51.406;6.856;2024-01-27T01:14:44;2.60;99.90
3713;DHT22;1872;51.406;6.856;2024-01-27T01:17:10;2.60;99.90
3713;DHT22;1872;51.406;6.856;2024-01-27T01:19:40;2.60;99.90
3713;DHT22;1872;51.406;6.856;2024-01-27T01:22:05;2.60;99.90
3713;DHT22;1872;51.406;6.856;2024-01-27T01:24:32;2.60;99.90
3713;DHT22;1872;51.406;6.856;2024-01-27T01:26:58;2.50;99.90
3713;DHT22;1872;51.406;6.856;2024-01-27T01:29:24;2.50;99.90
3713;DHT22;1872;51.406;6.856;2024-01-27T01:31:50;2.50;99.90
3713;DHT22;1872;51.406;6.856;2024-01-27T01:34:16;2.50;99.90
3713;DHT22;1872;51.406;6.856;2024-01-27T01:36:41;2.50;99.90
3713;DHT22;1872;51.406;6.856;2024-01-27T01:39:09;2.50;99.90
3713;DHT22;1872;51.406;6.856;2024-01-27T01:41:35;2.50;99.90
3713;DHT22;1872;51.406;6.856;2024-01-27T01:44:01;2.50;99.90
3713;DHT22;1872;51.406;6.856;2024-01-27T01:46:26;2.50;99.90
3713;DHT22;1872;51.406;6.856;2024-01-27T01:48:53;2.50;99.90
3713;DHT22;1872;51.406;6.856;2024-01-27T01:51:19;2.50;99.90
3713;DHT22;1872;51.406;6.856;2024-01-27T01:53:48;2.50;99.90
3713;DHT22;1872;51.406;6.856;2024-01-27T01:56:15;2.50;99.90
3713;DHT22;1872;51.406;6.856;2024-01-27T01:58:41;2.50;99.90
3713;DHT22;1872;51.406;6.856;2024-01-27T02:01:07;2.50;99.90
3713;DHT22;1872;51.406;6.856;2024-01-27T02:03:33;2.50;99.90
3713;DHT22;1872;51.406;6.856;2024-01-27T02:05:59;2.50;99.90
3713;DHT22;1872;51.406;6.856;2024-01-27T02:08:25;2.40;99.90
3713;DHT22;1872;51.406;6.856;2024-01-27T02:10:50;2.40;99.90
3713;DHT22;1872;51.406;6.856;2024-01-27T02:13:19;2.40;99.90
3713;DHT22;1872;51.406;6.856;2024-01-27T02:15:46;2.50;99.90
3713;DHT22;1872;51.406;6.856;2024-01-27T02:18:12;2.40;99.90
3713;DHT22;1872;51.406;6.856;2024-01-27T02:20:38;2.40;99.90
3713;DHT22;1872;51.406;6.856;2024-01-27T02:23:04;2.40;99.90
3713;DHT22;1872;51.406;6.856;2024-01-27T02:25:31;2.40;99.90
3713;DHT22;1872;51.406;6.856;2024-01-27T02:27:57;2.40;99.90
3713;DHT22;1872;51.406;6.856;2024-01-27T02:30:23;2.40;99.90
3713;DHT22;1872;51.406;6.856;2024-01-27T02:32:48;2.40;99.90
3713;DHT22;1872;51.406;6.856;2024-01-27T02:35:14;2.30;99.90
3713;DHT22;1872;51.406;6.856;2024-01-27T02:37:41;2.30;99.90
3713;DHT22;1872;51.406;6.856;2024-01-27T02:40:07;2.30;99.90
3713;DHT22;1872;51.406;6.856;2024-01-27T02:42:34;2.30;99.90
3713;DHT22;1872;51.406;6.856;2024-01-27T02:45:00;2.30;99.90
3713;DHT22;1872;51.406;6.856;2024-01-27T02:47:26;2.30;99.90
3713;DHT22;1872;51.406;6.856;2024-01-27T02:49:51;2.30;99.90
3713;DHT22;1872;51.406;6.856;2024-01-27T02:52:17;2.30;99.90
3713;DHT22;1872;51.406;6.856;2024-01-27T02:54:43;2.20;99.90
3713;DHT22;1872;51.406;6.856;2024-01-27T02:57:09;2.20;99.90
3713;DHT22;1872;51.406;6.856;2024-01-27T02:59:35;2.20;99.90
3713;DHT22;1872;51.406;6.856;2024-01-27T03:02:01;2.20;99.90
3713;DHT22;1872;51.406;6.856;2024-01-27T03:04:26;2.20;99.90
3713;DHT22;1872;51.406;6.856;2024-01-27T03:06:52;2.20;99.90
3713;DHT22;1872;51.406;6.856;2024-01-27T03:09:18;2.20;99.90
3713;DHT22;1872;51.406;6.856;2024-01-27T03:11:43;2.20;99.90
3713;DHT22;1872;51.406;6.856;2024-01-27T03:14:09;2.20;99.90
3713;DHT22;1872;51.406;6.856;2024-01-27T03:16:37;2.20;99.90
3713;DHT22;1872;51.406;6.856;2024-01-27T03:19:02;2.20;99.90
3713;DHT22;1872;51.406;6.856;2024-01-27T03:21:29;2.20;99.90
3713;DHT22;1872;51.406;6.856;2024-01-27T03:23:55;2.20;99.90
3713;DHT22;1872;51.406;6.856;2024-01-27T03:26:20;2.20;99.90
3713;DHT22;1872;51.406;6.856;2024-01-27T03:28:46;2.20;99.90
3713;DHT22;1872;51.406;6.856;2024-01-27T03:31:12;2.20;99.90
3713;DHT22;1872;51.406;6.856;2024-01-27T03:33:37;2.20;99.90
3713;DHT22;1872;51.406;6.856;2024-01-27T03:36:12;2.20;99.90
3713;DHT22;1872;51.406;6.856;2024-01-27T03:38:39;2.10;99.90
3713;DHT22;1872;51.406;6.856;2024-01-27T03:41:05;2.10;99.90
3713;DHT22;1872;51.406;6.856;2024-01-27T03:43:31;2.10;99.90
3713;DHT22;1872;51.406;6.856;2024-01-27T03:45:57;2.10;99.90
3713;DHT22;1872;51.406;6.856;2024-01-27T03:48:24;2.10;99.90
3713;DHT22;1872;51.406;6.856;2024-01-27T03:50:49;2.10;99.90
3713;DHT22;1872;51.406;6.856;2024-01-27T03:53:15;2.10;99.90
3713;DHT22;1872;51.406;6.856;2024-01-27T03:55:41;2.10;99.90
3713;DHT22;1872;51.406;6.856;2024-01-27T03:58:06;2.10;99.90
3713;DHT22;1872;51.406;6.856;2024-01-27T04:00:32;2.10;99.90
3713;DHT22;1872;51.406;6.856;2024-01-27T04:03:02;2.10;99.90
3713;DHT22;1872;51.406;6.856;2024-01-27T04:05:29;2.10;99.90
3713;DHT22;1872;51.406;6.856;2024-01-27T04:07:55;2.10;99.90
3713;DHT22;1872;51.406;6.856;2024-01-27T04:10:21;2.10;99.90
3713;DHT22;1872;51.406;6.856;2024-01-27T04:12:47;2.10;99.90
3713;DHT22;1872;51.406;6.856;2024-01-27T04:15:12;2.10;99.90
3713;DHT22;1872;51.406;6.856;2024-01-27T04:17:39;2.10;99.90
3713;DHT22;1872;51.406;6.856;2024-01-27T04:20:06;2.10;99.90
3713;DHT22;1872;51.406;6.856;2024-01-27T04:22:33;2.10;99.90
3713;DHT22;1872;51.406;6.856;2024-01-27T04:24:59;2.10;99.90
3713;DHT22;1872;51.406;6.856;2024-01-27T04:27:26;2.10;99.90
3713;DHT22;1872;51.406;6.856;2024-01-27T04:29:52;2.10;99.90
3713;DHT22;1872;51.406;6.856;2024-01-27T04:32:18;2.10;99.90
3713;DHT22;1872;51.406;6.856;2024-01-27T04:34:44;2.10;99.90
3713;DHT22;1872;51.406;6.856;2024-01-27T04:37:09;2.10;99.90
3713;DHT22;1872;51.406;6.856;2024-01-27T04:39:35;2.10;99.90
3713;DHT22;1872;51.406;6.856;2024-01-27T04:42:01;2.10;99.90
3713;DHT22;1872;51.406;6.856;2024-01-27T04:44:27;2.10;99.90
3713;DHT22;1872;51.406;6.856;2024-01-27T04:46:52;2.10;99.90
3713;DHT22;1872;51.406;6.856;2024-01-27T04:49:18;2.00;99.90
3713;DHT22;1872;51.406;6.856;2024-01-27T04:51:44;2.00;99.90
3713;DHT22;1872;51.406;6.856;2024-01-27T04:54:10;2.00;99.90
3713;DHT22;1872;51.406;6.856;2024-01-27T04:56:37;2.00;99.90
3713;DHT22;1872;51.406;6.856;2024-01-27T04:59:03;2.00;99.90
3713;DHT22;1872;51.406;6.856;2024-01-27T05:01:28;1.90;99.90
3713;DHT22;1872;51.406;6.856;2024-01-27T05:03:54;2.00;99.90
3713;DHT22;1872;51.406;6.856;2024-01-27T05:06:20;2.00;99.90
3713;DHT22;1872;51.406;6.856;2024-01-27T05:08:45;2.00;99.90
3713;DHT22;1872;51.406;6.856;2024-01-27T05:11:11;1.90;99.90
3713;DHT22;1872;51.406;6.856;2024-01-27T05:13:37;2.00;99.90
3713;DHT22;1872;51.406;6.856;2024-01-27T05:16:05;2.00;99.90
3713;DHT22;1872;51.406;6.856;2024-01-27T05:18:31;1.90;99.90
3713;DHT22;1872;51.406;6.856;2024-01-27T05:20:57;1.90;99.90
3713;DHT22;1872;51.406;6.856;2024-01-27T05:23:23;1.90;99.90
3713;DHT22;1872;51.406;6.856;2024-01-27T05:25:49;1.90;99.90
3713;DHT22;1872;51.406;6.856;2024-01-27T05:28:14;1.90;99.90
3713;DHT22;1872;51.406;6.856;2024-01-27T05:30:40;1.90;99.90
3713;DHT22;1872;51.406;6.856;2024-01-27T05:33:06;1.90;99.90
3713;DHT22;1872;51.406;6.856;2024-01-27T05:35:31;1.80;99.90
3713;DHT22;1872;51.406;6.856;2024-01-27T05:37:58;1.80;99.90
3713;DHT22;1872;51.406;6.856;2024-01-27T05:40:23;1.80;99.90
3713;DHT22;1872;51.406;6.856;2024-01-27T05:42:49;1.80;99.90
3713;DHT22;1872;51.406;6.856;2024-01-27T05:45:15;1.80;99.90
3713;DHT22;1872;51.406;6.856;2024-01-27T05:47:41;1.80;99.90
3713;DHT22;1872;51.406;6.856;2024-01-27T05:50:07;1.80;99.90
3713;DHT22;1872;51.406;6.856;2024-01-27T05:52:34;1.70;99.90
3713;DHT22;1872;51.406;6.856;2024-01-27T05:55:01;1.80;99.90
3713;DHT22;1872;51.406;6.856;2024-01-27T05:57:26;1.80;99.90
3713;DHT22;1872;51.406;6.856;2024-01-27T05:59:52;1.70;99.90
3713;DHT22;1872;51.406;6.856;2024-01-27T06:02:18;1.80;99.90
3713;DHT22;1872;51.406;6.856;2024-01-27T06:04:43;1.80;99.90
3713;DHT22;1872;51.406;6.856;2024-01-27T06:07:09;1.70;99.90
3713;DHT22;1872;51.406;6.856;2024-01-27T06:09:37;1.70;99.90
3713;DHT22;1872;51.406;6.856;2024-01-27T06:12:03;1.70;99.90
3713;DHT22;1872;51.406;6.856;2024-01-27T06:14:30;1.70;99.90
3713;DHT22;1872;51.406;6.856;2024-01-27T06:16:55;1.70;99.90
3713;DHT22;1872;51.406;6.856;2024-01-27T06:19:22;1.80;99.90
3713;DHT22;1872;51.406;6.856;2024-01-27T06:21:48;1.80;99.90
3713;DHT22;1872;51.406;6.856;2024-01-27T06:24:15;1.80;99.90
3713;DHT22;1872;51.406;6.856;2024-01-27T06:26:40;1.80;99.90
3713;DHT22;1872;51.406;6.856;2024-01-27T06:29:06;1.70;99.90
3713;DHT22;1872;51.406;6.856;2024-01-27T06:31:32;1.70;99.90
3713;DHT22;1872;51.406;6.856;2024-01-27T06:33:57;1.70;99.90
3713;DHT22;1872;51.406;6.856;2024-01-27T06:36:23;1.80;99.90
3713;DHT22;1872;51.406;6.856;2024-01-27T06:38:50;1.80;99.90
3713;DHT22;1872;51.406;6.856;2024-01-27T06:41:17;1.80;99.90
3713;DHT22;1872;51.406;6.856;2024-01-27T06:43:43;1.80;99.90
3713;DHT22;1872;51.406;6.856;2024-01-27T06:46:08;1.80;99.90
3713;DHT22;1872;51.406;6.856;2024-01-27T06:48:34;1.70;99.90
3713;DHT22;1872;51.406;6.856;2024-01-27T06:51:00;1.80;99.90
3713;DHT22;1872;51.406;6.856;2024-01-27T06:53:26;1.80;99.90
3713;DHT22;1872;51.406;6.856;2024-01-27T06:55:51;1.80;99.90
3713;DHT22;1872;51.406;6.856;2024-01-27T06:58:17;1.80;99.90
3713;DHT22;1872;51.406;6.856;2024-01-27T07:00:43;1.80;99.90
3713;DHT22;1872;51.406;6.856;2024-01-27T07:03:11;1.80;99.90
3713;DHT22;1872;51.406;6.856;2024-01-27T07:05:37;1.80;99.90
3713;DHT22;1872;51.406;6.856;2024-01-27T07:08:08;1.80;99.90
3713;DHT22;1872;51.406;6.856;2024-01-27T07:10:35;1.80;99.90
3713;DHT22;1872;51.406;6.856;2024-01-27T07:13:01;1.80;99.90
3713;DHT22;1872;51.406;6.856;2024-01-27T07:15:27;1.80;99.90
3713;DHT22;1872;51.406;6.856;2024-01-27T07:17:53;1.80;99.90
3713;DHT22;1872;51.406;6.856;2024-01-27T07:20:19;1.70;99.90
3713;DHT22;1872;51.406;6.856;2024-01-27T07:22:49;1.70;99.90
3713;DHT22;1872;51.406;6.856;2024-01-27T07:25:15;1.70;99.90
3713;DHT22;1872;51.406;6.856;2024-01-27T07:27:41;1.80;99.90
3713;DHT22;1872;51.406;6.856;2024-01-27T07:30:07;1.70;99.90
3713;DHT22;1872;51.406;6.856;2024-01-27T07:32:34;1.80;99.90
3713;DHT22;1872;51.406;6.856;2024-01-27T07:35:01;1.80;99.90
3713;DHT22;1872;51.406;6.856;2024-01-27T07:37:27;1.80;99.90
3713;DHT22;1872;51.406;6.856;2024-01-27T07:39:52;1.80;99.90
3713;DHT22;1872;51.406;6.856;2024-01-27T07:42:18;1.80;99.90
3713;DHT22;1872;51.406;6.856;2024-01-27T07:44:44;1.90;99.90
3713;DHT22;1872;51.406;6.856;2024-01-27T07:47:09;1.90;99.90
3713;DHT22;1872;51.406;6.856;2024-01-27T07:49:35;1.90;99.90
3713;DHT22;1872;51.406;6.856;2024-01-27T07:52:01;1.90;99.90
3713;DHT22;1872;51.406;6.856;2024-01-27T07:54:26;1.90;99.90
3713;DHT22;1872;51.406;6.856;2024-01-27T07:56:52;1.90;99.90
3713;DHT22;1872;51.406;6.856;2024-01-27T07:59:18;2.00;99.90
3713;DHT22;1872;51.406;6.856;2024-01-27T08:01:44;2.00;99.90
3713;DHT22;1872;51.406;6.856;2024-01-27T08:04:10;2.10;99.90
3713;DHT22;1872;51.406;6.856;2024-01-27T08:06:46;2.10;99.90
3713;DHT22;1872;51.406;6.856;2024-01-27T08:09:12;2.10;99.90
3713;DHT22;1872;51.406;6.856;2024-01-27T08:11:38;2.10;99.90
3713;DHT22;1872;51.406;6.856;2024-01-27T08:14:04;2.20;99.90
3713;DHT22;1872;51.406;6.856;2024-01-27T08:16:29;2.20;99.90
3713;DHT22;1872;51.406;6.856;2024-01-27T08:18:55;2.20;99.90
3713;DHT22;1872;51.406;6.856;2024-01-27T08:21:21;2.30;99.90
3713;DHT22;1872;51.406;6.856;2024-01-27T08:23:46;2.30;99.90
3713;DHT22;1872;51.406;6.856;2024-01-27T08:26:12;2.40;99.90
3713;DHT22;1872;51.406;6.856;2024-01-27T08:28:38;2.40;99.90
3713;DHT22;1872;51.406;6.856;2024-01-27T08:31:04;2.50;99.90
3713;DHT22;1872;51.406;6.856;2024-01-27T08:33:30;2.50;99.90
3713;DHT22;1872;51.406;6.856;2024-01-27T08:35:56;2.50;99.90
3713;DHT22;1872;51.406;6.856;2024-01-27T08:38:22;2.60;99.90
3713;DHT22;1872;51.406;6.856;2024-01-27T08:40:48;2.60;99.90
3713;DHT22;1872;51.406;6.856;2024-01-27T08:43:13;2.70;99.90
3713;DHT22;1872;51.406;6.856;2024-01-27T08:45:39;2.70;99.90
3713;DHT22;1872;51.406;6.856;2024-01-27T08:48:06;2.80;99.90
3713;DHT22;1872;51.406;6.856;2024-01-27T08:50:32;2.80;99.90
3713;DHT22;1872;51.406;6.856;2024-01-27T08:52:58;2.90;99.90
3713;DHT22;1872;51.406;6.856;2024-01-27T08:55:23;3.00;99.90
3713;DHT22;1872;51.406;6.856;2024-01-27T08:57:50;3.10;99.90
3713;DHT22;1872;51.406;6.856;2024-01-27T09:00:16;3.10;99.90
3713;DHT22;1872;51.406;6.856;2024-01-27T09:02:42;3.20;99.90
3713;DHT22;1872;51.406;6.856;2024-01-27T09:05:08;3.30;99.90
3713;DHT22;1872;51.406;6.856;2024-01-27T09:07:34;3.30;99.90
3713;DHT22;1872;51.406;6.856;2024-01-27T09:10:01;3.30;99.90
3713;DHT22;1872;51.406;6.856;2024-01-27T09:12:27;3.50;99.90
3713;DHT22;1872;51.406;6.856;2024-01-27T09:14:52;3.50;99.90
3713;DHT22;1872;51.406;6.856;2024-01-27T09:17:22;3.50;99.90
3713;DHT22;1872;51.406;6.856;2024-01-27T09:19:48;3.60;99.90
3713;DHT22;1872;51.406;6.856;2024-01-27T09:22:14;3.60;99.90
3713;DHT22;1872;51.406;6.856;2024-01-27T09:24:40;3.70;99.90
3713;DHT22;1872;51.406;6.856;2024-01-27T09:27:06;3.70;99.90
3713;DHT22;1872;51.406;6.856;2024-01-27T09:29:32;3.80;99.90
3713;DHT22;1872;51.406;6.856;2024-01-27T09:31:57;3.80;99.90
3713;DHT22;1872;51.406;6.856;2024-01-27T09:34:23;3.90;99.90
3713;DHT22;1872;51.406;6.856;2024-01-27T09:36:49;3.90;99.90
3713;DHT22;1872;51.406;6.856;2024-01-27T09:39:15;3.90;99.90
3713;DHT22;1872;51.406;6.856;2024-01-27T09:41:41;3.90;99.90
3713;DHT22;1872;51.406;6.856;2024-01-27T09:44:07;4.00;99.90
3713;DHT22;1872;51.406;6.856;2024-01-27T09:46:35;4.10;99.90
3713;DHT22;1872;51.406;6.856;2024-01-27T09:49:02;4.10;99.90
3713;DHT22;1872;51.406;6.856;2024-01-27T09:51:29;4.20;99.90
3713;DHT22;1872;51.406;6.856;2024-01-27T09:53:55;4.20;99.90
3713;DHT22;1872;51.406;6.856;2024-01-27T09:56:20;4.20;99.90
3713;DHT22;1872;51.406;6.856;2024-01-27T09:58:47;4.20;99.90
3713;DHT22;1872;51.406;6.856;2024-01-27T10:01:16;4.30;99.90
3713;DHT22;1872;51.406;6.856;2024-01-27T10:03:43;4.30;99.90
3713;DHT22;1872;51.406;6.856;2024-01-27T10:06:10;4.40;99.90
3713;DHT22;1872;51.406;6.856;2024-01-27T10:12:00;4.50;99.90
3713;DHT22;1872;51.406;6.856;2024-01-27T10:14:37;4.50;99.90
3713;DHT22;1872;51.406;6.856;2024-01-27T10:17:03;4.60;99.90
3713;DHT22;1872;51.406;6.856;2024-01-27T10:19:28;4.60;99.90
3713;DHT22;1872;51.406;6.856;2024-01-27T10:22:01;4.70;99.90
3713;DHT22;1872;51.406;6.856;2024-01-27T10:24:31;4.70;99.90
3713;DHT22;1872;51.406;6.856;2024-01-27T10:27:04;4.70;99.90
3713;DHT22;1872;51.406;6.856;2024-01-27T10:29:33;4.80;99.90
3713;DHT22;1872;51.406;6.856;2024-01-27T10:32:16;4.80;99.90
3713;DHT22;1872;51.406;6.856;2024-01-27T10:34:42;4.80;99.90
3713;DHT22;1872;51.406;6.856;2024-01-27T10:37:12;4.80;99.90
3713;DHT22;1872;51.406;6.856;2024-01-27T10:39:38;4.90;99.90
3713;DHT22;1872;51.406;6.856;2024-01-27T10:42:05;4.90;99.90
3713;DHT22;1872;51.406;6.856;2024-01-27T10:44:31;5.00;99.90
3713;DHT22;1872;51.406;6.856;2024-01-27T10:47:01;5.00;99.90
3713;DHT22;1872;51.406;6.856;2024-01-27T10:49:31;5.10;99.90
3713;DHT22;1872;51.406;6.856;2024-01-27T10:51:59;5.10;99.90
3713;DHT22;1872;51.406;6.856;2024-01-27T10:54:28;5.10;99.90
3713;DHT22;1872;51.406;6.856;2024-01-27T10:56:56;5.20;99.90
3713;DHT22;1872;51.406;6.856;2024-01-27T10:59:23;5.20;99.90
3713;DHT22;1872;51.406;6.856;2024-01-27T11:01:52;5.20;99.90
3713;DHT22;1872;51.406;6.856;2024-01-27T11:04:20;5.20;99.90
3713;DHT22;1872;51.406;6.856;2024-01-27T11:06:47;5.30;99.90
3713;DHT22;1872;51.406;6.856;2024-01-27T11:09:14;5.30;99.90
3713;DHT22;1872;51.406;6.856;2024-01-27T11:11:42;5.30;99.90
3713;DHT22;1872;51.406;6.856;2024-01-27T11:14:09;5.40;99.90
3713;DHT22;1872;51.406;6.856;2024-01-27T11:16:36;5.40;99.90
3713;DHT22;1872;51.406;6.856;2024-01-27T11:19:13;5.50;99.90
3713;DHT22;1872;51.406;6.856;2024-01-27T11:21:40;5.50;99.90
3713;DHT22;1872;51.406;6.856;2024-01-27T11:24:16;5.60;99.90
3713;DHT22;1872;51.406;6.856;2024-01-27T11:26:42;5.60;99.90
3713;DHT22;1872;51.406;6.856;2024-01-27T11:29:08;5.60;99.90
3713;DHT22;1872;51.406;6.856;2024-01-27T11:31:35;5.70;99.90
3713;DHT22;1872;51.406;6.856;2024-01-27T11:34:01;5.70;99.90
3713;DHT22;1872;51.406;6.856;2024-01-27T11:36:27;5.70;99.90
3713;DHT22;1872;51.406;6.856;2024-01-27T11:38:53;5.70;99.90
3713;DHT22;1872;51.406;6.856;2024-01-27T11:41:26;5.80;99.90
3713;DHT22;1872;51.406;6.856;2024-01-27T11:43:53;5.80;99.90
3713;DHT22;1872;51.406;6.856;2024-01-27T11:46:19;5.80;99.90
3713;DHT22;1872;51.406;6.856;2024-01-27T11:48:46;5.90;99.90
3713;DHT22;1872;51.406;6.856;2024-01-27T11:51:12;5.90;99.90
3713;DHT22;1872;51.406;6.856;2024-01-27T11:53:38;6.00;99.90
3713;DHT22;1872;51.406;6.856;2024-01-27T11:56:04;6.00;99.90
3713;DHT22;1872;51.406;6.856;2024-01-27T11:58:31;6.00;99.90
3713;DHT22;1872;51.406;6.856;2024-01-27T12:00:57;6.10;99.90
3713;DHT22;1872;51.406;6.856;2024-01-27T12:03:23;6.10;99.90
3713;DHT22;1872;51.406;6.856;2024-01-27T12:05:49;6.10;99.90
3713;DHT22;1872;51.406;6.856;2024-01-27T12:08:16;6.10;99.90
3713;DHT22;1872;51.406;6.856;2024-01-27T12:10:42;6.10;99.90
3713;DHT22;1872;51.406;6.856;2024-01-27T12:13:08;6.20;99.90
3713;DHT22;1872;51.406;6.856;2024-01-27T12:15:34;6.20;99.90
3713;DHT22;1872;51.406;6.856;2024-01-27T12:17:59;6.20;99.90
3713;DHT22;1872;51.406;6.856;2024-01-27T12:20:25;6.30;99.90
3713;DHT22;1872;51.406;6.856;2024-01-27T12:23:05;6.30;99.90
3713;DHT22;1872;51.406;6.856;2024-01-27T12:25:31;6.40;99.90
3713;DHT22;1872;51.406;6.856;2024-01-27T12:27:57;6.40;99.90
3713;DHT22;1872;51.406;6.856;2024-01-27T12:30:26;6.40;99.90
3713;DHT22;1872;51.406;6.856;2024-01-27T12:32:52;6.50;99.90
3713;DHT22;1872;51.406;6.856;2024-01-27T12:35:18;6.50;99.90
3713;DHT22;1872;51.406;6.856;2024-01-27T12:37:44;6.50;99.90
3713;DHT22;1872;51.406;6.856;2024-01-27T12:40:20;6.50;99.90
3713;DHT22;1872;51.406;6.856;2024-01-27T12:42:46;6.60;99.90
3713;DHT22;1872;51.406;6.856;2024-01-27T12:45:12;6.60;99.90
3713;DHT22;1872;51.406;6.856;2024-01-27T12:47:39;6.60;99.90
3713;DHT22;1872;51.406;6.856;2024-01-27T12:50:05;6.60;99.90
3713;DHT22;1872;51.406;6.856;2024-01-27T12:52:31;6.60;99.90
3713;DHT22;1872;51.406;6.856;2024-01-27T12:54:57;6.70;99.90
3713;DHT22;1872;51.406;6.856;2024-01-27T12:57:23;6.70;99.90
3713;DHT22;1872;51.406;6.856;2024-01-27T12:59:49;6.70;99.90
3713;DHT22;1872;51.406;6.856;2024-01-27T13:02:15;6.80;99.90
3713;DHT22;1872;51.406;6.856;2024-01-27T13:04:41;6.80;99.90
3713;DHT22;1872;51.406;6.856;2024-01-27T13:07:07;6.80;99.90
3713;DHT22;1872;51.406;6.856;2024-01-27T13:09:33;6.80;99.90
3713;DHT22;1872;51.406;6.856;2024-01-27T13:11:59;6.80;99.90
3713;DHT22;1872;51.406;6.856;2024-01-27T13:14:24;6.80;99.90
3713;DHT22;1872;51.406;6.856;2024-01-27T13:16:50;6.90;99.90
3713;DHT22;1872;51.406;6.856;2024-01-27T13:19:19;6.90;99.90
3713;DHT22;1872;51.406;6.856;2024-01-27T13:21:44;7.00;99.90
3713;DHT22;1872;51.406;6.856;2024-01-27T13:24:10;7.00;99.90
3713;DHT22;1872;51.406;6.856;2024-01-27T13:26:37;7.00;99.90
3713;DHT22;1872;51.406;6.856;2024-01-27T13:29:04;7.00;99.90
3713;DHT22;1872;51.406;6.856;2024-01-27T13:31:30;7.00;99.90
3713;DHT22;1872;51.406;6.856;2024-01-27T13:33:59;7.00;99.90
3713;DHT22;1872;51.406;6.856;2024-01-27T13:36:25;7.00;99.90
3713;DHT22;1872;51.406;6.856;2024-01-27T13:38:51;7.00;99.90
3713;DHT22;1872;51.406;6.856;2024-01-27T13:41:18;7.00;99.90
3713;DHT22;1872;51.406;6.856;2024-01-27T13:43:44;7.00;99.90
3713;DHT22;1872;51.406;6.856;2024-01-27T13:46:10;7.00;99.90
3713;DHT22;1872;51.406;6.856;2024-01-27T13:48:36;7.00;99.90
3713;DHT22;1872;51.406;6.856;2024-01-27T13:51:02;7.00;99.90
3713;DHT22;1872;51.406;6.856;2024-01-27T13:53:28;7.00;99.90
3713;DHT22;1872;51.406;6.856;2024-01-27T13:55:54;7.10;99.90
3713;DHT22;1872;51.406;6.856;2024-01-27T13:58:20;7.00;99.90
3713;DHT22;1872;51.406;6.856;2024-01-27T14:00:47;7.10;99.90
3713;DHT22;1872;51.406;6.856;2024-01-27T14:03:13;7.10;99.90
3713;DHT22;1872;51.406;6.856;2024-01-27T14:05:39;7.10;99.90
3713;DHT22;1872;51.406;6.856;2024-01-27T14:08:05;7.10;99.90
3713;DHT22;1872;51.406;6.856;2024-01-27T14:10:32;7.10;99.90
3713;DHT22;1872;51.406;6.856;2024-01-27T14:12:58;7.10;99.90
3713;DHT22;1872;51.406;6.856;2024-01-27T14:15:24;7.10;99.90
3713;DHT22;1872;51.406;6.856;2024-01-27T14:17:50;7.10;99.90
3713;DHT22;1872;51.406;6.856;2024-01-27T14:20:16;7.10;99.90
3713;DHT22;1872;51.406;6.856;2024-01-27T14:22:42;7.10;99.90
3713;DHT22;1872;51.406;6.856;2024-01-27T14:25:09;7.10;99.90
3713;DHT22;1872;51.406;6.856;2024-01-27T14:27:35;7.00;99.90
3713;DHT22;1872;51.406;6.856;2024-01-27T14:30:01;7.00;99.90
3713;DHT22;1872;51.406;6.856;2024-01-27T14:32:26;7.00;99.90
3713;DHT22;1872;51.406;6.856;2024-01-27T14:34:53;7.00;99.90
3713;DHT22;1872;51.406;6.856;2024-01-27T14:37:19;7.00;99.90
3713;DHT22;1872;51.406;6.856;2024-01-27T14:39:45;6.90;99.90
3713;DHT22;1872;51.406;6.856;2024-01-27T14:42:15;6.90;99.90
3713;DHT22;1872;51.406;6.856;2024-01-27T14:44:43;6.90;99.90
3713;DHT22;1872;51.406;6.856;2024-01-27T14:47:11;6.90;99.90
3713;DHT22;1872;51.406;6.856;2024-01-27T14:49:37;7.00;99.90
3713;DHT22;1872;51.406;6.856;2024-01-27T14:52:05;6.90;99.90
3713;DHT22;1872;51.406;6.856;2024-01-27T14:54:32;7.00;99.90
3713;DHT22;1872;51.406;6.856;2024-01-27T14:56:58;7.00;99.90
3713;DHT22;1872;51.406;6.856;2024-01-27T14:59:24;7.00;99.90
3713;DHT22;1872;51.406;6.856;2024-01-27T15:01:49;7.00;99.90
3713;DHT22;1872;51.406;6.856;2024-01-27T15:04:16;6.90;99.90
3713;DHT22;1872;51.406;6.856;2024-01-27T15:06:42;6.90;99.90
3713;DHT22;1872;51.406;6.856;2024-01-27T15:09:08;6.90;99.90
3713;DHT22;1872;51.406;6.856;2024-01-27T15:11:33;6.90;99.90
3713;DHT22;1872;51.406;6.856;2024-01-27T15:13:59;6.80;99.90
3713;DHT22;1872;51.406;6.856;2024-01-27T15:16:25;6.80;99.90
3713;DHT22;1872;51.406;6.856;2024-01-27T15:18:52;6.80;99.90
3713;DHT22;1872;51.406;6.856;2024-01-27T15:21:18;6.80;99.90
3713;DHT22;1872;51.406;6.856;2024-01-27T15:23:43;6.70;99.90
3713;DHT22;1872;51.406;6.856;2024-01-27T15:26:10;6.70;99.90
3713;DHT22;1872;51.406;6.856;2024-01-27T15:28:37;6.70;99.90
3713;DHT22;1872;51.406;6.856;2024-01-27T15:31:03;6.70;99.90
3713;DHT22;1872;51.406;6.856;2024-01-27T15:33:28;6.60;99.90
3713;DHT22;1872;51.406;6.856;2024-01-27T15:35:54;6.60;99.90
3713;DHT22;1872;51.406;6.856;2024-01-27T15:38:20;6.60;99.90
3713;DHT22;1872;51.406;6.856;2024-01-27T15:40:46;6.60;99.90
3713;DHT22;1872;51.406;6.856;2024-01-27T15:43:12;6.50;99.90
3713;DHT22;1872;51.406;6.856;2024-01-27T15:45:37;6.50;99.90
3713;DHT22;1872;51.406;6.856;2024-01-27T15:48:03;6.40;99.90
3713;DHT22;1872;51.406;6.856;2024-01-27T15:50:29;6.40;99.90
3713;DHT22;1872;51.406;6.856;2024-01-27T15:52:56;6.40;99.90
3713;DHT22;1872;51.406;6.856;2024-01-27T15:55:23;6.30;99.90
3713;DHT22;1872;51.406;6.856;2024-01-27T15:57:49;6.30;99.90
3713;DHT22;1872;51.406;6.856;2024-01-27T16:00:16;6.20;99.90
3713;DHT22;1872;51.406;6.856;2024-01-27T16:02:42;6.20;99.90
3713;DHT22;1872;51.406;6.856;2024-01-27T16:05:08;6.10;99.90
3713;DHT22;1872;51.406;6.856;2024-01-27T16:07:33;6.10;99.90
3713;DHT22;1872;51.406;6.856;2024-01-27T16:09:59;6.00;99.90
3713;DHT22;1872;51.406;6.856;2024-01-27T16:12:28;5.90;99.90
3713;DHT22;1872;51.406;6.856;2024-01-27T16:14:54;5.80;99.90